world map with SKV marked

SKV - Airport

This information may not be accurate or current and is not valid for navigation or flight planning. No warranty of fitness for any purpose is made or implied.

flag of Janub Sina (South Sinai)flag of Egypt

Donate via PayPal

Additional information is available on the NEW Great Circle Mapper

Location
City:  St. Catherine, Janub Sina (South Sinai), Egypt
Name:St. Catherine International Airport
ICAO / IATA:HESC / SKV

Details
Type:Airport (Aerodrome, Airfield)
Latitude:28°41'07"N (28.685278)
Longitude:34°03'45"E (34.062500)
Datum:WGS 1984
Elevation:4368 ft (1331 m)
Runways:1
Longest:6939 × 118 ft (2115 × 36 m)

Time
Timezone:UTC+2 (DST+4)
Local Time:

Weather
METAR:HESC  041400Z 15005KT CAVOK 19/M01 Q1022 NOSIG
TAF:HESC  (expired)

Related Locations
Nearby:
Farthest:RVV: 12084 mi / 19447 km
Raivavae, Tubuai Islands, Austral Islands, PF

Find:

   beyond  
but within

Other Information
Maps:
Sources:

  


 


Great Circle Mapper   Great Circle Mapper
Great Circle Mapper FAQ   Great Circle Mapper FAQ
  Karl's Home Page
KLSē   KLSē Home
   GC on Facebook
Airlines of the World   Airlines of the World
Donate via PayPal


Copyright © 2004-2019, Karl L. Swartz. All rights reserved.
All trademarks mentioned herein belong to their respective owners.

Please see credits for attribution and copyright information.

Karl Swartz <karl@kls2.com>
  Powered by FreeBSD
Valid HTML 4.01!
Labeled with ICRA
hCard Microformat
Geo Microformat